Time;durP1;ratioP1;P1;durP2;ratioP2;P2;SDS_P1;SDS_P2;PMS_P1;PMS_P2;Temp;Humidity;BMP_temperature;BMP_pressure;BME280_temperature;BME280_humidity;BME280_pressure;Samples;Min_cycle;Max_cycle;Signal;HPM_P1;HPM_P2
2022/01/15 00:00:34;;;;;;;42.58;20.30;;;3.40;99.90;;;;;;5056777;28;20055;-77
2022/01/15 00:03:00;;;;;;;40.88;20.52;;;3.40;99.90;;;;;;5056603;28;20031;-76
2022/01/15 00:05:25;;;;;;;39.65;20.25;;;3.50;99.90;;;;;;5056460;28;20112;-75
2022/01/15 00:07:51;;;;;;;42.10;21.80;;;3.50;99.90;;;;;;5056385;28;20100;-77
2022/01/15 00:10:26;;;;;;;45.00;22.17;;;3.50;99.90;;;;;;5056608;28;20021;-76
2022/01/15 00:12:56;;;;;;;46.80;24.95;;;3.50;99.90;;;;;;5037988;28;20049;-75
2022/01/15 00:15:32;;;;;;;43.67;22.67;;;3.50;99.90;;;;;;5056533;28;20116;-77
2022/01/15 00:18:01;;;;;;;51.03;23.85;;;3.50;99.90;;;;;;5038011;28;20489;-75
2022/01/15 00:20:28;;;;;;;46.75;22.35;;;3.40;99.90;;;;;;5056132;28;20490;-74
2022/01/15 00:22:56;;;;;;;47.03;21.55;;;3.40;99.90;;;;;;5056027;28;20033;-76
2022/01/15 00:25:24;;;;;;;46.40;21.23;;;3.40;99.90;;;;;;5038231;28;20124;-75
2022/01/15 00:27:50;;;;;;;45.28;21.25;;;3.20;99.90;;;;;;5056005;28;20482;-73
2022/01/15 00:30:18;;;;;;;41.10;20.88;;;3.10;99.90;;;;;;5038042;28;20102;-76
2022/01/15 00:32:44;;;;;;;46.40;21.13;;;3.10;99.90;;;;;;5056233;28;20075;-75
2022/01/15 00:35:12;;;;;;;47.20;20.45;;;3.00;99.90;;;;;;5055857;28;20025;-75
2022/01/15 00:37:39;;;;;;;47.25;22.85;;;3.00;99.90;;;;;;5055816;28;20502;-75
2022/01/15 00:40:08;;;;;;;47.17;21.55;;;3.10;99.90;;;;;;5055799;28;20375;-76
2022/01/15 00:42:35;;;;;;;45.85;21.88;;;3.10;99.90;;;;;;5055855;28;20433;-76
2022/01/15 00:45:02;;;;;;;45.15;22.70;;;3.20;99.90;;;;;;5037716;28;20027;-77
2022/01/15 00:47:31;;;;;;;44.88;21.15;;;3.10;99.90;;;;;;5054795;28;20105;-74
2022/01/15 00:50:01;;;;;;;42.15;20.95;;;3.10;99.90;;;;;;5037655;28;20107;-75
2022/01/15 00:52:27;;;;;;;;;;;3.10;99.90;;;;;;5055799;28;20066;-76
2022/01/15 00:54:53;;;;;;;44.78;20.80;;;3.10;99.90;;;;;;5055498;28;19905;-76
2022/01/15 00:57:19;;;;;;;43.08;19.92;;;3.00;99.90;;;;;;5055756;28;20506;-75
2022/01/15 00:59:45;;;;;;;44.20;19.25;;;3.00;99.90;;;;;;5055416;28;20433;-75
2022/01/15 01:02:11;;;;;;;43.55;19.65;;;2.90;99.90;;;;;;5055290;28;20074;-75
2022/01/15 01:04:36;;;;;;;39.65;18.23;;;2.80;99.90;;;;;;5055511;28;20051;-75
2022/01/15 01:07:03;;;;;;;42.30;20.98;;;2.80;99.90;;;;;;5055546;28;20048;-75
2022/01/15 01:09:46;;;;;;;39.97;18.70;;;2.80;99.90;;;;;;5055476;28;20516;-76
2022/01/15 01:23:06;;;;;;;40.20;18.58;;;3.00;99.90;;;;;;5054930;28;20079;-75
2022/01/15 01:25:39;;;;;;;42.83;21.13;;;3.00;99.90;;;;;;5055503;28;20021;-75
2022/01/15 01:28:19;;;;;;;41.15;19.25;;;3.00;99.90;;;;;;5055164;28;20443;-74
2022/01/15 01:30:54;;;;;;;41.17;18.85;;;3.10;99.90;;;;;;5036659;28;20021;-76
2022/01/15 01:36:03;;;;;;;41.63;19.38;;;3.00;99.90;;;;;;5054966;28;20029;-76
2022/01/15 01:38:34;;;;;;;;;;;3.10;99.90;;;;;;5036970;28;20025;-75
2022/01/15 01:41:01;;;;;;;39.53;18.48;;;3.20;99.90;;;;;;5054960;28;19905;-76
2022/01/15 01:46:20;;;;;;;39.47;20.27;;;3.10;99.90;;;;;;5054859;28;20021;-75
2022/01/15 01:48:46;;;;;;;44.50;20.60;;;3.20;99.90;;;;;;5055079;28;20526;-77
2022/01/15 01:51:25;;;;;;;43.08;19.52;;;3.30;99.90;;;;;;5054404;28;20032;-76
2022/01/15 01:53:52;;;;;;;42.90;19.27;;;3.30;99.90;;;;;;5054941;28;20032;-73
2022/01/15 01:56:19;;;;;;;45.60;20.45;;;3.40;99.90;;;;;;5036443;28;20442;-76
2022/01/15 01:58:45;;;;;;;47.42;20.50;;;3.40;99.90;;;;;;5054319;28;20036;-76
2022/01/15 02:01:11;;;;;;;44.17;18.27;;;3.40;99.90;;;;;;5054814;28;20486;-76
2022/01/15 02:03:37;;;;;;;44.35;21.48;;;3.40;99.90;;;;;;5054078;28;20046;-75
2022/01/15 02:06:04;;;;;;;43.25;19.10;;;3.50;99.90;;;;;;5054175;28;20390;-74
2022/01/15 02:08:33;;;;;;;40.08;19.48;;;3.40;99.90;;;;;;5054372;28;20022;-77
2022/01/15 02:11:02;;;;;;;42.70;19.83;;;3.50;99.90;;;;;;5053857;28;20067;-76
2022/01/15 02:13:29;;;;;;;43.10;19.90;;;3.50;99.90;;;;;;5054346;28;20028;-76
2022/01/15 02:15:57;;;;;;;42.28;19.35;;;3.50;99.90;;;;;;5054244;28;20017;-75
2022/01/15 02:18:23;;;;;;;42.63;18.63;;;3.50;99.90;;;;;;5053993;28;20025;-75
2022/01/15 02:21:02;;;;;;;47.65;21.27;;;3.50;99.90;;;;;;5053863;28;20048;-74
2022/01/15 02:23:35;;;;;;;47.33;20.45;;;3.50;99.90;;;;;;5054047;28;20021;-74
2022/01/15 02:26:08;;;;;;;45.08;21.08;;;3.50;99.90;;;;;;5054336;28;20037;-75
2022/01/15 02:28:37;;;;;;;41.63;20.10;;;3.50;99.90;;;;;;5054097;28;20104;-75
2022/01/15 02:31:07;;;;;;;43.88;19.70;;;3.50;99.90;;;;;;5053940;28;20013;-74
2022/01/15 02:33:33;;;;;;;45.15;20.58;;;3.60;99.90;;;;;;5035810;28;20047;-76
2022/01/15 02:36:00;;;;;;;154.38;71.20;;;3.50;99.90;;;;;;5053791;28;20028;-74
2022/01/15 02:38:26;;;;;;;49.55;23.13;;;3.50;99.90;;;;;;5053569;28;20029;-75
2022/01/15 02:40:52;;;;;;;47.72;20.90;;;3.50;99.90;;;;;;5054071;28;20030;-76
2022/01/15 02:43:21;;;;;;;44.25;19.70;;;3.60;99.90;;;;;;5053410;28;20493;-74
2022/01/15 02:46:00;;;;;;;44.88;19.05;;;3.60;99.90;;;;;;5053697;28;20024;-76
2022/01/15 02:48:27;;;;;;;45.47;20.73;;;3.60;99.90;;;;;;5053455;28;20024;-74
2022/01/15 02:50:55;;;;;;;48.75;20.40;;;3.60;99.90;;;;;;5053344;28;20021;-76
2022/01/15 02:53:21;;;;;;;41.78;20.90;;;3.60;99.90;;;;;;5053894;28;20025;-77
2022/01/15 02:55:52;;;;;;;44.92;20.20;;;3.60;99.90;;;;;;5035400;28;20025;-75
2022/01/15 02:58:20;;;;;;;46.00;20.38;;;3.60;99.90;;;;;;5035455;28;20119;-75
2022/01/15 03:00:47;;;;;;;49.85;21.27;;;3.60;99.90;;;;;;5053743;28;20036;-75
2022/01/15 03:03:13;;;;;;;46.50;22.27;;;3.60;99.90;;;;;;5053321;28;20114;-74
2022/01/15 03:05:39;;;;;;;45.00;20.05;;;3.60;99.90;;;;;;5035313;28;20016;-73
2022/01/15 03:08:05;;;;;;;43.70;19.70;;;3.70;99.90;;;;;;5053213;28;20025;-75
2022/01/15 03:10:30;;;;;;;44.00;20.15;;;3.60;99.90;;;;;;5052728;28;20425;-76
2022/01/15 03:12:58;;;;;;;47.80;21.35;;;3.60;99.90;;;;;;5052691;28;20060;-76
2022/01/15 03:15:24;;;;;;;54.10;22.80;;;3.60;99.90;;;;;;5053074;28;20021;-76
2022/01/15 03:17:50;;;;;;;41.83;21.30;;;3.50;99.90;;;;;;5052982;28;20025;-75
2022/01/15 03:20:18;;;;;;;44.28;20.98;;;3.50;99.90;;;;;;5053026;28;20052;-75
2022/01/15 03:22:44;;;;;;;51.45;22.15;;;3.70;99.90;;;;;;5053471;28;20032;-76
2022/01/15 03:25:11;;;;;;;46.03;20.65;;;3.70;99.90;;;;;;5053233;28;20024;-74
2022/01/15 03:27:38;;;;;;;43.38;20.55;;;3.70;99.90;;;;;;5052958;28;20493;-76
2022/01/15 03:30:07;;;;;;;50.92;22.80;;;3.60;99.90;;;;;;5052952;28;20013;-75
2022/01/15 03:32:33;;;;;;;49.22;20.50;;;3.70;99.90;;;;;;5035046;28;20036;-73
2022/01/15 03:34:58;;;;;;;46.42;22.05;;;3.70;99.90;;;;;;5035065;28;20028;-75
2022/01/15 03:37:24;;;;;;;48.55;21.60;;;3.70;99.90;;;;;;5052880;28;20025;-76
2022/01/15 03:39:50;;;;;;;46.60;20.15;;;3.70;99.90;;;;;;5052801;28;20367;-74
2022/01/15 03:42:16;;;;;;;47.85;21.60;;;3.70;99.90;;;;;;5052743;28;20040;-75
2022/01/15 03:44:45;;;;;;;43.92;19.80;;;3.70;99.90;;;;;;5053348;28;20028;-75
2022/01/15 03:47:11;;;;;;;51.28;22.40;;;3.70;99.90;;;;;;5052761;28;20565;-75
2022/01/15 03:49:38;;;;;;;45.15;19.95;;;3.70;99.90;;;;;;5034963;28;20104;-75
2022/01/15 03:52:05;;;;;;;48.03;21.77;;;3.70;99.90;;;;;;5034890;28;20040;-76
2022/01/15 03:54:31;;;;;;;51.53;19.83;;;3.60;99.90;;;;;;5052740;28;20437;-74
2022/01/15 03:56:57;;;;;;;46.30;20.70;;;3.60;99.90;;;;;;5052695;28;20029;-76
2022/01/15 03:59:23;;;;;;;47.60;22.02;;;3.60;99.90;;;;;;5052916;28;20029;-76
2022/01/15 04:01:49;;;;;;;50.95;21.88;;;3.60;99.90;;;;;;5052538;28;20063;-75
2022/01/15 04:04:15;;;;;;;46.25;20.45;;;3.70;99.90;;;;;;5052517;28;20021;-76
2022/01/15 04:06:41;;;;;;;44.90;20.02;;;3.70;99.90;;;;;;5053150;28;20017;-75
2022/01/15 04:09:07;;;;;;;48.67;22.23;;;3.70;99.90;;;;;;5052845;28;20021;-76
2022/01/15 04:11:34;;;;;;;45.63;19.92;;;3.50;99.90;;;;;;5052330;28;20078;-74
2022/01/15 04:14:01;;;;;;;42.70;20.35;;;3.50;99.90;;;;;;5052499;28;20021;-75
2022/01/15 04:16:28;;;;;;;50.63;21.55;;;3.60;99.90;;;;;;5052755;28;20029;-75
2022/01/15 04:18:55;;;;;;;46.15;22.25;;;3.70;99.90;;;;;;5053007;28;20025;-74
2022/01/15 04:21:21;;;;;;;52.60;22.52;;;3.70;99.90;;;;;;5053507;28;20143;-75
2022/01/15 04:23:46;;;;;;;48.95;20.83;;;3.80;99.90;;;;;;5038172;28;20482;-73
2022/01/15 04:26:12;;;;;;;46.13;20.60;;;3.80;99.90;;;;;;5056065;28;20036;-75
2022/01/15 04:28:38;;;;;;;47.30;20.17;;;3.70;99.90;;;;;;5056557;28;20028;-75
2022/01/15 04:31:07;;;;;;;46.60;19.90;;;3.50;99.90;;;;;;5038083;28;20552;-74
2022/01/15 04:33:37;;;;;;;47.47;21.35;;;3.40;99.90;;;;;;5038046;28;20031;-74
2022/01/15 04:36:06;;;;;;;50.53;22.75;;;3.40;99.90;;;;;;5056219;28;20455;-75
2022/01/15 04:38:35;;;;;;;50.03;22.98;;;3.40;99.90;;;;;;5056372;28;20036;-75
2022/01/15 04:41:00;;;;;;;52.05;23.02;;;3.30;99.90;;;;;;5055787;28;20031;-74
2022/01/15 04:43:26;;;;;;;55.50;23.50;;;3.30;99.90;;;;;;5055974;28;20029;-74
2022/01/15 04:45:52;;;;;;;47.25;20.92;;;3.30;99.90;;;;;;5055707;28;20027;-74
2022/01/15 04:48:17;;;;;;;45.08;21.67;;;3.30;99.90;;;;;;5055671;28;20021;-76
2022/01/15 04:50:43;;;;;;;39.40;19.67;;;3.40;99.90;;;;;;5055859;28;20097;-74
2022/01/15 04:53:09;;;;;;;47.58;21.10;;;3.40;99.90;;;;;;5055548;28;20025;-73
2022/01/15 04:55:36;;;;;;;42.38;20.75;;;3.40;99.90;;;;;;5055528;28;20100;-74
2022/01/15 04:58:03;;;;;;;51.33;22.80;;;3.50;99.90;;;;;;5055487;28;20055;-76
2022/01/15 05:00:29;;;;;;;42.80;19.15;;;3.50;99.90;;;;;;5055401;28;20036;-75
2022/01/15 05:02:57;;;;;;;47.08;20.48;;;3.60;99.90;;;;;;5037280;28;20021;-76
2022/01/15 05:05:23;;;;;;;47.72;21.75;;;3.50;99.90;;;;;;5055322;28;20099;-72
2022/01/15 05:07:49;;;;;;;50.47;21.52;;;3.50;99.90;;;;;;5055283;28;20021;-74
2022/01/15 05:10:17;;;;;;;45.70;20.25;;;3.60;99.90;;;;;;5055525;28;20032;-74
2022/01/15 05:12:44;;;;;;;43.80;20.23;;;3.50;99.90;;;;;;5036914;28;20073;-74
2022/01/15 05:15:12;;;;;;;43.83;20.05;;;3.60;99.90;;;;;;5037271;28;20029;-75
2022/01/15 05:17:38;;;;;;;45.78;20.58;;;3.50;99.90;;;;;;5037256;28;20021;-75
2022/01/15 05:20:06;;;;;;;45.53;21.65;;;3.50;99.90;;;;;;5055029;28;20505;-74
2022/01/15 05:22:33;;;;;;;48.13;20.90;;;3.50;99.90;;;;;;5054862;28;20103;-75
2022/01/15 05:24:58;;;;;;;48.28;21.08;;;3.50;99.90;;;;;;5054952;28;20029;-75
2022/01/15 05:27:24;;;;;;;43.95;19.30;;;3.50;99.90;;;;;;5054922;28;20017;-74
2022/01/15 05:29:50;;;;;;;45.40;20.20;;;3.40;99.90;;;;;;5054886;28;20025;-75
2022/01/15 05:32:18;;;;;;;42.85;19.67;;;3.40;99.90;;;;;;5054479;28;20037;-74
2022/01/15 05:34:47;;;;;;;44.38;22.15;;;3.30;99.90;;;;;;5055330;28;20071;-75
2022/01/15 05:37:13;;;;;;;40.38;19.50;;;3.30;99.90;;;;;;5054742;28;20021;-75
2022/01/15 05:39:39;;;;;;;45.40;20.50;;;3.30;99.90;;;;;;5054740;28;20444;-74
2022/01/15 05:42:05;;;;;;;49.65;20.80;;;3.30;99.90;;;;;;5054594;28;20029;-75
2022/01/15 05:44:31;;;;;;;43.78;20.35;;;3.30;99.90;;;;;;5054920;28;20032;-75
2022/01/15 05:46:56;;;;;;;45.70;20.50;;;3.20;99.90;;;;;;5054530;28;20382;-74
2022/01/15 05:49:22;;;;;;;43.90;19.58;;;3.10;99.90;;;;;;5054798;28;20024;-74
2022/01/15 05:51:48;;;;;;;42.10;20.70;;;3.10;99.90;;;;;;5054766;28;20021;-76
2022/01/15 05:54:13;;;;;;;41.70;19.63;;;3.10;99.90;;;;;;5054974;28;20013;-75
2022/01/15 05:56:40;;;;;;;45.67;21.77;;;3.00;99.90;;;;;;5054361;28;20033;-74
2022/01/15 05:59:07;;;;;;;66.90;21.05;;;2.80;99.90;;;;;;5054343;28;20021;-74
2022/01/15 06:01:33;;;;;;;48.22;21.23;;;2.90;99.90;;;;;;5054298;28;20075;-76
2022/01/15 06:03:59;;;;;;;66.43;21.92;;;2.60;99.90;;;;;;5054080;28;20021;-75
2022/01/15 06:06:24;;;;;;;102.22;24.42;;;2.40;99.90;;;;;;5054211;28;20364;-74
2022/01/15 06:08:50;;;;;;;54.58;20.88;;;2.30;99.90;;;;;;5054411;28;20021;-74
2022/01/15 06:11:17;;;;;;;54.35;21.10;;;2.10;99.90;;;;;;5054127;28;20083;-74
2022/01/15 06:13:47;;;;;;;57.58;23.35;;;2.00;99.90;;;;;;5054353;28;20021;-77
2022/01/15 06:16:13;;;;;;;61.05;22.15;;;2.00;99.90;;;;;;5054268;28;20116;-74
2022/01/15 06:18:39;;;;;;;45.25;21.75;;;1.90;99.90;;;;;;5054199;28;20021;-74
2022/01/15 06:21:05;;;;;;;56.13;23.00;;;2.00;99.90;;;;;;5053925;28;20158;-75
2022/01/15 06:23:31;;;;;;;50.00;23.60;;;2.10;99.90;;;;;;5053805;28;20033;-74
2022/01/15 06:25:56;;;;;;;45.17;20.98;;;2.40;99.90;;;;;;5054094;28;20545;-75
2022/01/15 06:28:23;;;;;;;51.17;22.17;;;2.50;99.90;;;;;;5035879;28;20021;-74
2022/01/15 06:30:48;;;;;;;49.35;21.88;;;2.70;99.90;;;;;;5053672;28;20486;-76
2022/01/15 06:33:14;;;;;;;55.65;23.83;;;2.60;99.90;;;;;;5053675;28;20021;-74
2022/01/15 06:35:40;;;;;;;50.90;22.42;;;2.50;99.90;;;;;;5053664;28;20028;-75
2022/01/15 06:38:06;;;;;;;43.78;22.17;;;2.50;99.90;;;;;;5053594;28;20068;-75
2022/01/15 06:40:32;;;;;;;48.97;22.27;;;2.60;99.90;;;;;;5053535;28;20067;-75
2022/01/15 06:43:00;;;;;;;46.10;20.73;;;2.70;99.90;;;;;;5053711;28;20068;-76
2022/01/15 06:45:30;;;;;;;45.95;22.80;;;2.70;99.90;;;;;;5052831;28;20037;-74
2022/01/15 06:47:56;;;;;;;67.30;21.67;;;2.70;99.90;;;;;;5035574;28;20021;-74
2022/01/15 06:50:27;;;;;;;48.45;21.10;;;2.50;99.90;;;;;;5053407;28;20449;-75
2022/01/15 06:52:53;;;;;;;43.67;21.33;;;2.50;99.90;;;;;;5053718;28;20573;-74
2022/01/15 06:55:19;;;;;;;50.13;22.25;;;2.40;99.90;;;;;;5053352;28;20032;-74
2022/01/15 06:57:45;;;;;;;46.75;20.63;;;2.40;99.90;;;;;;5053289;28;20471;-75
2022/01/15 07:00:11;;;;;;;48.65;21.60;;;2.40;99.90;;;;;;5053533;28;20024;-73
2022/01/15 07:02:38;;;;;;;74.45;23.60;;;2.30;99.90;;;;;;5052984;28;20108;-74
2022/01/15 07:05:05;;;;;;;54.08;24.75;;;2.30;99.90;;;;;;5052859;28;20036;-75
2022/01/15 07:07:31;;;;;;;45.85;20.58;;;2.20;99.90;;;;;;5053699;28;20025;-73
2022/01/15 07:09:57;;;;;;;64.75;23.88;;;2.30;99.90;;;;;;5053598;28;20020;-74
2022/01/15 07:12:23;;;;;;;46.22;22.08;;;2.30;99.90;;;;;;5053096;28;20053;-74
2022/01/15 07:14:48;;;;;;;52.67;22.55;;;2.20;99.90;;;;;;5053034;28;20021;-73
2022/01/15 07:17:16;;;;;;;79.65;23.55;;;2.30;99.90;;;;;;5035609;28;20053;-75
2022/01/15 07:19:42;;;;;;;54.80;23.80;;;2.30;99.90;;;;;;5053050;28;20074;-74
2022/01/15 07:22:08;;;;;;;53.95;24.23;;;2.20;99.90;;;;;;5053207;28;20029;-74
2022/01/15 07:24:34;;;;;;;52.95;23.30;;;2.30;99.90;;;;;;5053043;28;20017;-75
2022/01/15 07:27:00;;;;;;;52.35;21.95;;;2.40;99.90;;;;;;5052979;28;20017;-74
2022/01/15 07:29:25;;;;;;;47.50;23.15;;;2.30;99.90;;;;;;5052953;28;20083;-73
2022/01/15 07:31:53;;;;;;;51.35;20.88;;;2.40;99.90;;;;;;5052974;28;20021;-75
2022/01/15 07:34:19;;;;;;;51.72;20.40;;;2.50;99.90;;;;;;5052959;28;20013;-74
2022/01/15 07:36:59;;;;;;;50.08;22.08;;;2.40;99.90;;;;;;5053146;28;20161;-75
2022/01/15 07:39:25;;;;;;;51.63;22.70;;;2.30;99.90;;;;;;5053204;28;20017;-74
2022/01/15 07:41:51;;;;;;;51.65;22.23;;;2.20;99.90;;;;;;5052797;28;20029;-75
2022/01/15 07:44:17;;;;;;;66.38;23.85;;;2.10;99.90;;;;;;5053419;28;20432;-74
2022/01/15 07:46:43;;;;;;;45.85;21.95;;;2.10;99.90;;;;;;5053105;28;20108;-76
2022/01/15 07:49:09;;;;;;;53.53;23.90;;;2.20;99.90;;;;;;5052748;28;20405;-75
2022/01/15 07:51:35;;;;;;;59.88;24.55;;;2.20;99.90;;;;;;5053022;28;20021;-74
2022/01/15 07:54:00;;;;;;;59.63;23.83;;;2.30;99.90;;;;;;5053293;28;20020;-76
2022/01/15 07:56:26;;;;;;;73.60;22.95;;;2.10;99.90;;;;;;5055260;28;20040;-75
2022/01/15 07:58:52;;;;;;;48.42;22.65;;;2.00;99.90;;;;;;5056916;28;20079;-76
2022/01/15 08:01:19;;;;;;;45.72;22.15;;;2.20;99.90;;;;;;5056856;28;20040;-75
2022/01/15 08:03:46;;;;;;;52.88;22.88;;;2.30;99.90;;;;;;5056666;28;20021;-76
2022/01/15 08:06:14;;;;;;;54.97;21.65;;;2.30;99.90;;;;;;5056475;28;20080;-74
2022/01/15 08:08:39;;;;;;;56.60;26.63;;;2.50;99.90;;;;;;5056658;28;20023;-76
2022/01/15 08:11:05;;;;;;;42.70;19.75;;;2.60;99.90;;;;;;5056434;28;20131;-75
2022/01/15 08:13:31;;;;;;;54.75;21.65;;;2.60;99.90;;;;;;5056620;28;20052;-76
2022/01/15 08:15:57;;;;;;;65.47;22.23;;;2.50;99.90;;;;;;5056817;28;20032;-74
2022/01/15 08:18:24;;;;;;;92.18;23.80;;;2.50;99.90;;;;;;5056555;28;20021;-74
2022/01/15 08:20:50;;;;;;;48.03;20.02;;;2.40;99.90;;;;;;5038281;28;20025;-75
2022/01/15 08:23:16;;;;;;;90.80;24.77;;;2.50;99.90;;;;;;5056067;28;20025;-74
2022/01/15 08:25:41;;;;;;;88.32;23.17;;;2.60;99.90;;;;;;5056129;28;20066;-75
2022/01/15 08:28:08;;;;;;;68.90;23.45;;;2.40;99.90;;;;;;5056020;28;20383;-73
2022/01/15 08:30:34;;;;;;;45.42;20.23;;;2.40;99.90;;;;;;5056252;28;20040;-76
2022/01/15 08:33:00;;;;;;;45.90;22.15;;;2.30;99.90;;;;;;5055994;28;20092;-75
2022/01/15 08:35:26;;;;;;;76.30;23.27;;;2.30;99.90;;;;;;5055939;28;20056;-77
2022/01/15 08:37:51;;;;;;;89.28;22.77;;;2.30;99.90;;;;;;5038066;28;20083;-74
2022/01/15 08:40:20;;;;;;;90.15;23.65;;;2.20;99.90;;;;;;5055629;28;20078;-76
2022/01/15 08:42:46;;;;;;;70.88;23.30;;;2.20;99.90;;;;;;5055688;28;20021;-75
2022/01/15 08:45:13;;;;;;;58.90;21.05;;;2.20;99.90;;;;;;5055763;28;20395;-75
2022/01/15 08:47:40;;;;;;;47.42;22.58;;;2.30;99.90;;;;;;5055951;28;20017;-73
2022/01/15 08:50:08;;;;;;;43.25;20.65;;;2.30;99.90;;;;;;5055916;28;20025;-74
2022/01/15 08:52:35;;;;;;;43.60;21.42;;;2.40;99.90;;;;;;5056151;28;20066;-75
2022/01/15 08:55:02;;;;;;;53.50;26.63;;;2.50;99.90;;;;;;5055816;28;20101;-75
2022/01/15 08:57:28;;;;;;;74.07;26.48;;;2.80;99.90;;;;;;5037636;28;20114;-74
2022/01/15 08:59:54;;;;;;;45.42;22.75;;;2.90;99.90;;;;;;5055694;28;20170;-75
2022/01/15 09:02:20;;;;;;;55.22;20.67;;;2.70;99.90;;;;;;5037451;28;20028;-74
2022/01/15 09:04:45;;;;;;;81.47;23.73;;;2.50;99.90;;;;;;5055288;28;20467;-75
2022/01/15 09:07:12;;;;;;;41.83;21.10;;;2.20;99.90;;;;;;5054661;28;20022;-76
2022/01/15 09:09:38;;;;;;;55.67;25.95;;;2.40;99.90;;;;;;5055275;28;20033;-76
2022/01/15 09:12:04;;;;;;;52.95;22.90;;;2.50;99.90;;;;;;5055075;28;20099;-74
2022/01/15 09:14:29;;;;;;;47.28;21.73;;;2.70;99.90;;;;;;5055164;28;20025;-75
2022/01/15 09:16:55;;;;;;;43.47;22.73;;;2.80;99.90;;;;;;5055419;28;20020;-72
2022/01/15 09:19:21;;;;;;;68.35;21.75;;;2.90;99.90;;;;;;5055092;28;20029;-74
2022/01/15 09:21:47;;;;;;;47.03;23.00;;;2.80;99.90;;;;;;5055072;28;20059;-73
2022/01/15 09:24:12;;;;;;;42.05;19.17;;;2.90;99.90;;;;;;5055197;28;20033;-75
2022/01/15 09:32:05;;;;;;;41.60;18.17;;;2.90;99.90;;;;;;5054922;28;20094;-77
2022/01/15 09:34:32;;;;;;;46.85;24.08;;;3.00;99.90;;;;;;5054592;28;20025;-77
2022/01/15 09:36:58;;;;;;;54.35;28.60;;;3.00;99.90;;;;;;5054714;28;20009;-78
2022/01/15 09:39:24;;;;;;;45.08;21.73;;;3.00;99.90;;;;;;5054718;28;20096;-77
2022/01/15 09:41:54;;;;;;;35.08;18.40;;;3.00;99.90;;;;;;5054675;28;20497;-75
2022/01/15 09:44:20;;;;;;;31.27;17.02;;;3.10;99.90;;;;;;5054601;28;20021;-73
2022/01/15 09:46:46;;;;;;;41.22;19.35;;;2.90;99.90;;;;;;5054522;28;20021;-76
2022/01/15 09:49:15;;;;;;;38.20;20.98;;;2.90;99.90;;;;;;5054520;28;20021;-76
2022/01/15 09:51:43;;;;;;;40.17;19.38;;;3.00;99.90;;;;;;5054482;28;20060;-76
2022/01/15 09:54:09;;;;;;;34.85;18.50;;;3.20;99.90;;;;;;5054368;28;20032;-83
2022/01/15 09:56:34;;;;;;;44.33;19.67;;;3.20;99.90;;;;;;5054324;28;20021;-79
2022/01/15 09:59:02;;;;;;;31.63;18.67;;;3.30;99.90;;;;;;5054348;28;20096;-80
2022/01/15 10:01:29;;;;;;;31.23;19.20;;;3.10;99.90;;;;;;5054563;28;20108;-80
2022/01/15 10:03:56;;;;;;;35.63;21.63;;;3.40;99.90;;;;;;5053961;28;20028;-76
2022/01/15 10:06:22;;;;;;;34.80;19.23;;;3.40;99.90;;;;;;5054139;28;20017;-78
2022/01/15 10:09:04;;;;;;;48.50;27.88;;;3.50;99.90;;;;;;5054378;28;20551;-77
2022/01/15 10:11:59;;;;;;;41.67;23.92;;;3.60;99.90;;;;;;5054383;28;20041;-79
2022/01/15 10:14:33;;;;;;;50.10;22.05;;;3.60;99.90;;;;;;5033141;28;20035;-79
2022/01/15 10:17:00;;;;;;;36.40;19.80;;;3.60;99.90;;;;;;5053706;28;20029;-78
2022/01/15 10:19:37;;;;;;;51.20;25.30;;;3.60;99.90;;;;;;5052954;28;20024;-80
2022/01/15 10:22:09;;;;;;;63.30;34.00;;;3.50;99.90;;;;;;5035683;28;20029;-80
2022/01/15 10:24:37;;;;;;;40.47;20.80;;;3.60;99.90;;;;;;5054437;28;20118;-77
2022/01/15 10:27:30;;;;;;;37.67;20.13;;;3.50;99.90;;;;;;5054097;28;20045;-76
2022/01/15 10:30:05;;;;;;;44.33;24.02;;;3.60;99.90;;;;;;5054004;28;20033;-79
2022/01/15 10:32:34;;;;;;;64.35;29.83;;;3.60;99.90;;;;;;5035629;28;20167;-77
2022/01/15 10:35:00;;;;;;;34.72;17.95;;;3.60;99.90;;;;;;5053979;28;20032;-80
2022/01/15 10:37:36;;;;;;;41.75;22.77;;;3.50;99.90;;;;;;5053599;28;20514;-78
2022/01/15 10:40:12;;;;;;;38.67;20.50;;;3.70;99.90;;;;;;5035358;28;20029;-77
2022/01/15 10:42:38;;;;;;;35.25;19.50;;;3.90;99.90;;;;;;5053434;28;20048;-75
2022/01/15 10:45:10;;;;;;;33.40;17.92;;;3.80;99.90;;;;;;5053374;28;20025;-75
2022/01/15 10:47:42;;;;;;;45.00;18.48;;;3.80;99.90;;;;;;5053405;28;20108;-75
2022/01/15 10:50:09;;;;;;;38.40;19.55;;;3.70;99.90;;;;;;5053608;28;20025;-76
2022/01/15 10:52:35;;;;;;;35.40;18.65;;;3.90;99.90;;;;;;5035490;28;20025;-75
2022/01/15 10:55:09;;;;;;;31.63;17.25;;;4.00;99.90;;;;;;5053210;28;20036;-74
2022/01/15 10:57:38;;;;;;;34.72;19.58;;;4.10;99.90;;;;;;5053842;28;20028;-74
2022/01/15 11:00:15;;;;;;;30.20;16.20;;;4.20;99.90;;;;;;5035377;28;20384;-76
2022/01/15 11:02:52;;;;;;;44.50;19.92;;;4.30;99.90;;;;;;5053499;28;20382;-75
2022/01/15 11:05:22;;;;;;;28.33;16.20;;;3.90;99.90;;;;;;5053516;28;20096;-75
2022/01/15 11:07:48;;;;;;;30.00;18.10;;;3.80;99.90;;;;;;5053023;28;20021;-74
2022/01/15 11:10:13;;;;;;;30.98;17.10;;;4.00;99.90;;;;;;5053262;28;20029;-74
2022/01/15 11:12:39;;;;;;;27.30;15.73;;;4.10;99.90;;;;;;5052469;28;20060;-75
2022/01/15 11:15:06;;;;;;;27.45;15.52;;;4.20;99.90;;;;;;5052811;28;20104;-75
2022/01/15 11:17:34;;;;;;;25.05;14.75;;;4.20;99.90;;;;;;5052981;28;20019;-74
2022/01/15 11:20:02;;;;;;;28.35;16.88;;;4.20;99.90;;;;;;5052880;28;20033;-74
2022/01/15 11:22:28;;;;;;;28.90;15.73;;;4.30;99.90;;;;;;5052813;28;20025;-74
2022/01/15 11:24:55;;;;;;;30.35;16.02;;;4.30;99.90;;;;;;5052868;28;20109;-74
2022/01/15 11:27:21;;;;;;;30.30;18.00;;;4.50;99.90;;;;;;5052915;28;20381;-76
2022/01/15 11:29:47;;;;;;;27.50;15.48;;;4.60;99.90;;;;;;5052994;28;20028;-74
2022/01/15 11:32:14;;;;;;;26.35;16.10;;;4.60;99.90;;;;;;5056971;28;20017;-74
2022/01/15 11:34:41;;;;;;;28.23;16.73;;;4.70;99.90;;;;;;5039153;28;20021;-75
2022/01/15 11:37:19;;;;;;;28.25;16.10;;;4.50;99.90;;;;;;5057318;28;20032;-73
2022/01/15 11:39:46;;;;;;;26.80;16.02;;;4.50;99.90;;;;;;5057288;28;20032;-75
2022/01/15 11:42:35;;;;;;;28.10;16.92;;;4.60;99.90;;;;;;5056871;28;20475;-75
2022/01/15 11:45:01;;;;;;;31.20;17.35;;;4.70;99.90;;;;;;5038679;28;20025;-74
2022/01/15 11:47:27;;;;;;;32.97;19.02;;;4.70;99.90;;;;;;5057109;28;20022;-73
2022/01/15 11:49:57;;;;;;;31.10;16.63;;;4.70;99.90;;;;;;5056800;28;20047;-74
2022/01/15 11:52:22;;;;;;;32.07;16.63;;;4.70;99.90;;;;;;5056789;28;20094;-74
2022/01/15 11:54:51;;;;;;;33.15;17.92;;;4.70;99.90;;;;;;5056683;28;20314;-75
2022/01/15 11:57:28;;;;;;;31.73;18.30;;;4.80;99.90;;;;;;5057206;28;20033;-74
2022/01/15 11:59:55;;;;;;;32.15;17.05;;;4.80;99.90;;;;;;5057224;28;20025;-75
2022/01/15 12:02:30;;;;;;;34.30;18.65;;;4.80;99.90;;;;;;5056500;28;20029;-74
2022/01/15 12:05:18;;;;;;;29.58;17.20;;;4.80;99.90;;;;;;5056466;28;20433;-74
2022/01/15 12:08:04;;;;;;;29.48;17.45;;;4.80;99.90;;;;;;5056370;28;20143;-74
2022/01/15 12:10:43;;;;;;;31.13;17.80;;;4.80;99.90;;;;;;5039050;28;20087;-74
2022/01/15 12:13:15;;;;;;;28.90;17.60;;;4.80;99.90;;;;;;5056344;28;20037;-73
2022/01/15 12:15:41;;;;;;;30.60;17.10;;;4.80;99.90;;;;;;5056899;28;20108;-74
2022/01/15 12:18:15;;;;;;;30.85;18.00;;;4.80;99.90;;;;;;5056293;28;20080;-75
2022/01/15 12:20:41;;;;;;;31.55;17.90;;;4.90;99.90;;;;;;5056202;28;20037;-74
2022/01/15 12:23:19;;;;;;;32.08;18.13;;;4.90;99.90;;;;;;5056159;28;20477;-75
2022/01/15 12:25:46;;;;;;;28.98;16.83;;;5.00;99.90;;;;;;5056183;28;20094;-75
2022/01/15 12:28:16;;;;;;;28.73;17.50;;;5.00;99.90;;;;;;5056066;28;20017;-74
2022/01/15 12:30:50;;;;;;;34.22;18.60;;;5.00;99.90;;;;;;5056655;28;20501;-74
2022/01/15 12:33:17;;;;;;;29.50;17.38;;;5.00;99.90;;;;;;5056018;28;20538;-74
2022/01/15 12:35:47;;;;;;;33.20;19.52;;;5.10;99.90;;;;;;5056136;28;20032;-74
2022/01/15 12:38:25;;;;;;;30.67;18.48;;;5.10;99.90;;;;;;5056248;28;20025;-74
2022/01/15 12:40:54;;;;;;;31.80;18.67;;;5.20;99.90;;;;;;5056430;28;20036;-74
2022/01/15 12:43:26;;;;;;;35.38;19.63;;;5.20;99.90;;;;;;5054850;28;20551;-75
2022/01/15 12:45:54;;;;;;;30.65;17.70;;;5.30;99.90;;;;;;5056056;28;20094;-74
2022/01/15 12:48:29;;;;;;;32.83;17.58;;;5.30;99.90;;;;;;5055715;28;20048;-74
2022/01/15 12:50:56;;;;;;;32.97;19.70;;;5.30;99.90;;;;;;5056003;28;20021;-74
2022/01/15 12:53:28;;;;;;;34.83;20.50;;;5.40;99.90;;;;;;5055922;28;20080;-75
2022/01/15 12:55:54;;;;;;;30.80;18.08;;;5.40;99.90;;;;;;5055844;28;20032;-75
2022/01/15 12:58:22;;;;;;;33.90;19.38;;;5.40;99.90;;;;;;5056064;28;20025;-74
2022/01/15 13:00:49;;;;;;;36.78;19.75;;;5.40;99.90;;;;;;5055469;28;20025;-75
2022/01/15 13:03:18;;;;;;;32.65;19.35;;;5.40;99.90;;;;;;5055484;28;20375;-75